sensor_id;sensor_type;location;lat;lon;timestamp;temperature;humidity
17797;DHT22;55596;53.554;9.916;2023-02-19T00:00:09;3.90;99.90
17797;DHT22;55596;53.554;9.916;2023-02-19T00:02:38;3.80;99.90
17797;DHT22;55596;53.554;9.916;2023-02-19T00:05:07;4.00;99.90
17797;DHT22;55596;53.554;9.916;2023-02-19T00:07:34;3.90;99.90
17797;DHT22;55596;53.554;9.916;2023-02-19T00:10:01;3.90;99.90
17797;DHT22;55596;53.554;9.916;2023-02-19T00:12:28;4.00;99.90
17797;DHT22;55596;53.554;9.916;2023-02-19T00:14:54;3.80;99.90
17797;DHT22;55596;53.554;9.916;2023-02-19T00:17:22;3.90;99.90
17797;DHT22;55596;53.554;9.916;2023-02-19T00:19:49;3.80;99.90
17797;DHT22;55596;53.554;9.916;2023-02-19T00:22:18;3.90;99.90
17797;DHT22;55596;53.554;9.916;2023-02-19T00:24:44;3.90;99.90
17797;DHT22;55596;53.554;9.916;2023-02-19T00:27:11;3.80;99.90
17797;DHT22;55596;53.554;9.916;2023-02-19T00:29:38;3.80;99.90
17797;DHT22;55596;53.554;9.916;2023-02-19T00:32:05;3.80;99.90
17797;DHT22;55596;53.554;9.916;2023-02-19T00:34:32;3.80;99.90
17797;DHT22;55596;53.554;9.916;2023-02-19T00:36:58;3.80;99.90
17797;DHT22;55596;53.554;9.916;2023-02-19T00:39:27;3.90;99.90
17797;DHT22;55596;53.554;9.916;2023-02-19T00:41:54;4.00;99.90
17797;DHT22;55596;53.554;9.916;2023-02-19T00:44:21;3.90;99.90
17797;DHT22;55596;53.554;9.916;2023-02-19T00:46:48;4.00;99.90
17797;DHT22;55596;53.554;9.916;2023-02-19T00:49:17;3.90;99.90
17797;DHT22;55596;53.554;9.916;2023-02-19T00:51:45;3.90;99.90
17797;DHT22;55596;53.554;9.916;2023-02-19T00:54:12;3.90;99.90
17797;DHT22;55596;53.554;9.916;2023-02-19T00:56:40;3.80;99.90
17797;DHT22;55596;53.554;9.916;2023-02-19T00:59:07;3.90;99.90
17797;DHT22;55596;53.554;9.916;2023-02-19T01:01:34;3.90;99.90
17797;DHT22;55596;53.554;9.916;2023-02-19T01:04:01;3.80;99.90
17797;DHT22;55596;53.554;9.916;2023-02-19T01:06:28;3.90;99.90
17797;DHT22;55596;53.554;9.916;2023-02-19T01:08:57;3.90;99.90
17797;DHT22;55596;53.554;9.916;2023-02-19T01:11:24;3.80;99.90
17797;DHT22;55596;53.554;9.916;2023-02-19T01:13:56;3.90;99.90
17797;DHT22;55596;53.554;9.916;2023-02-19T01:16:23;3.80;99.90
17797;DHT22;55596;53.554;9.916;2023-02-19T01:18:50;3.80;99.90
17797;DHT22;55596;53.554;9.916;2023-02-19T01:21:20;3.80;99.90
17797;DHT22;55596;53.554;9.916;2023-02-19T01:23:47;3.90;99.90
17797;DHT22;55596;53.554;9.916;2023-02-19T01:26:17;3.80;99.90
17797;DHT22;55596;53.554;9.916;2023-02-19T01:28:44;3.80;99.90
17797;DHT22;55596;53.554;9.916;2023-02-19T01:31:16;3.70;99.90
17797;DHT22;55596;53.554;9.916;2023-02-19T01:33:44;3.90;99.90
17797;DHT22;55596;53.554;9.916;2023-02-19T01:36:12;3.80;99.90
17797;DHT22;55596;53.554;9.916;2023-02-19T01:38:39;3.80;99.90
17797;DHT22;55596;53.554;9.916;2023-02-19T01:41:07;3.90;99.90
17797;DHT22;55596;53.554;9.916;2023-02-19T01:46:38;3.80;99.90
17797;DHT22;55596;53.554;9.916;2023-02-19T01:49:07;3.90;99.90
17797;DHT22;55596;53.554;9.916;2023-02-19T01:51:37;3.90;99.90
17797;DHT22;55596;53.554;9.916;2023-02-19T01:54:07;4.00;99.90
17797;DHT22;55596;53.554;9.916;2023-02-19T01:56:37;3.80;99.90
17797;DHT22;55596;53.554;9.916;2023-02-19T01:59:06;3.90;99.90
17797;DHT22;55596;53.554;9.916;2023-02-19T02:01:33;3.90;99.90
17797;DHT22;55596;53.554;9.916;2023-02-19T02:04:03;3.90;99.90
17797;DHT22;55596;53.554;9.916;2023-02-19T02:06:34;3.90;99.90
17797;DHT22;55596;53.554;9.916;2023-02-19T02:09:03;3.90;99.90
17797;DHT22;55596;53.554;9.916;2023-02-19T02:11:50;3.80;99.90
17797;DHT22;55596;53.554;9.916;2023-02-19T02:14:20;3.70;99.90
17797;DHT22;55596;53.554;9.916;2023-02-19T02:16:54;3.60;99.90
17797;DHT22;55596;53.554;9.916;2023-02-19T02:19:31;3.70;99.90
17797;DHT22;55596;53.554;9.916;2023-02-19T02:22:06;3.60;99.90
17797;DHT22;55596;53.554;9.916;2023-02-19T02:25:07;3.60;99.90
17797;DHT22;55596;53.554;9.916;2023-02-19T02:27:53;3.60;99.90
17797;DHT22;55596;53.554;9.916;2023-02-19T02:30:36;3.60;99.90
17797;DHT22;55596;53.554;9.916;2023-02-19T02:33:11;3.50;99.90
17797;DHT22;55596;53.554;9.916;2023-02-19T02:35:44;3.60;99.90
17797;DHT22;55596;53.554;9.916;2023-02-19T02:38:13;3.60;99.90
17797;DHT22;55596;53.554;9.916;2023-02-19T02:40:42;3.60;99.90
17797;DHT22;55596;53.554;9.916;2023-02-19T02:43:10;3.50;99.90
17797;DHT22;55596;53.554;9.916;2023-02-19T02:45:39;3.50;99.90
17797;DHT22;55596;53.554;9.916;2023-02-19T02:48:14;3.50;99.90
17797;DHT22;55596;53.554;9.916;2023-02-19T02:50:45;3.50;99.90
17797;DHT22;55596;53.554;9.916;2023-02-19T02:53:17;3.40;99.90
17797;DHT22;55596;53.554;9.916;2023-02-19T02:56:02;3.30;99.90
17797;DHT22;55596;53.554;9.916;2023-02-19T02:58:30;3.30;99.90
17797;DHT22;55596;53.554;9.916;2023-02-19T03:01:02;3.20;99.90
17797;DHT22;55596;53.554;9.916;2023-02-19T03:03:51;3.20;99.90
17797;DHT22;55596;53.554;9.916;2023-02-19T03:06:21;3.10;99.90
17797;DHT22;55596;53.554;9.916;2023-02-19T03:08:53;3.20;99.90
17797;DHT22;55596;53.554;9.916;2023-02-19T03:11:21;3.20;99.90
17797;DHT22;55596;53.554;9.916;2023-02-19T03:14:15;3.20;99.90
17797;DHT22;55596;53.554;9.916;2023-02-19T03:17:09;3.10;99.90
17797;DHT22;55596;53.554;9.916;2023-02-19T03:19:57;3.10;99.90
17797;DHT22;55596;53.554;9.916;2023-02-19T03:22:28;3.10;99.90
17797;DHT22;55596;53.554;9.916;2023-02-19T03:24:59;3.10;99.90
17797;DHT22;55596;53.554;9.916;2023-02-19T03:27:45;3.10;99.90
17797;DHT22;55596;53.554;9.916;2023-02-19T03:30:16;3.10;99.90
17797;DHT22;55596;53.554;9.916;2023-02-19T03:32:48;3.10;99.90
17797;DHT22;55596;53.554;9.916;2023-02-19T03:35:19;3.10;99.90
17797;DHT22;55596;53.554;9.916;2023-02-19T03:37:53;3.00;99.90
17797;DHT22;55596;53.554;9.916;2023-02-19T03:40:27;3.10;99.90
17797;DHT22;55596;53.554;9.916;2023-02-19T03:42:59;3.00;99.90
17797;DHT22;55596;53.554;9.916;2023-02-19T03:45:47;3.10;99.90
17797;DHT22;55596;53.554;9.916;2023-02-19T03:48:22;3.10;99.90
17797;DHT22;55596;53.554;9.916;2023-02-19T03:51:00;3.10;99.90
17797;DHT22;55596;53.554;9.916;2023-02-19T03:53:33;3.00;99.90
17797;DHT22;55596;53.554;9.916;2023-02-19T03:56:09;3.10;99.90
17797;DHT22;55596;53.554;9.916;2023-02-19T03:58:46;3.20;99.90
17797;DHT22;55596;53.554;9.916;2023-02-19T04:01:20;3.10;99.90
17797;DHT22;55596;53.554;9.916;2023-02-19T04:03:52;3.10;99.90
17797;DHT22;55596;53.554;9.916;2023-02-19T04:06:25;3.10;99.90
17797;DHT22;55596;53.554;9.916;2023-02-19T04:08:56;3.10;99.90
17797;DHT22;55596;53.554;9.916;2023-02-19T04:11:24;3.10;99.90
17797;DHT22;55596;53.554;9.916;2023-02-19T04:13:56;3.10;99.90
17797;DHT22;55596;53.554;9.916;2023-02-19T04:16:27;3.00;99.90
17797;DHT22;55596;53.554;9.916;2023-02-19T04:18:58;2.90;99.90
17797;DHT22;55596;53.554;9.916;2023-02-19T04:21:27;2.90;99.90
17797;DHT22;55596;53.554;9.916;2023-02-19T04:23:57;3.00;99.90
17797;DHT22;55596;53.554;9.916;2023-02-19T04:26:26;2.90;99.90
17797;DHT22;55596;53.554;9.916;2023-02-19T04:28:53;2.90;99.90
17797;DHT22;55596;53.554;9.916;2023-02-19T04:31:21;2.90;99.90
17797;DHT22;55596;53.554;9.916;2023-02-19T04:33:48;2.90;99.90
17797;DHT22;55596;53.554;9.916;2023-02-19T04:36:16;2.90;99.90
17797;DHT22;55596;53.554;9.916;2023-02-19T04:38:43;2.80;99.90
17797;DHT22;55596;53.554;9.916;2023-02-19T04:41:10;2.90;99.90
17797;DHT22;55596;53.554;9.916;2023-02-19T04:43:37;2.80;99.90
17797;DHT22;55596;53.554;9.916;2023-02-19T04:46:04;2.80;99.90
17797;DHT22;55596;53.554;9.916;2023-02-19T04:48:31;2.70;99.90
17797;DHT22;55596;53.554;9.916;2023-02-19T04:50:57;2.70;99.90
17797;DHT22;55596;53.554;9.916;2023-02-19T04:53:26;2.70;99.90
17797;DHT22;55596;53.554;9.916;2023-02-19T04:55:52;2.70;99.90
17797;DHT22;55596;53.554;9.916;2023-02-19T04:58:20;2.70;99.90
17797;DHT22;55596;53.554;9.916;2023-02-19T05:00:50;2.70;99.90
17797;DHT22;55596;53.554;9.916;2023-02-19T05:03:17;2.70;99.90
17797;DHT22;55596;53.554;9.916;2023-02-19T05:05:44;2.70;99.90
17797;DHT22;55596;53.554;9.916;2023-02-19T05:08:11;2.70;99.90
17797;DHT22;55596;53.554;9.916;2023-02-19T05:10:39;2.60;99.90
17797;DHT22;55596;53.554;9.916;2023-02-19T05:13:06;2.60;99.90
17797;DHT22;55596;53.554;9.916;2023-02-19T05:15:33;2.60;99.90
17797;DHT22;55596;53.554;9.916;2023-02-19T05:17:59;2.50;99.90
17797;DHT22;55596;53.554;9.916;2023-02-19T05:20:26;2.40;99.90
17797;DHT22;55596;53.554;9.916;2023-02-19T05:22:53;2.50;99.90
17797;DHT22;55596;53.554;9.916;2023-02-19T05:25:20;2.40;99.90
17797;DHT22;55596;53.554;9.916;2023-02-19T05:27:48;2.30;99.90
17797;DHT22;55596;53.554;9.916;2023-02-19T05:30:35;2.30;99.90
17797;DHT22;55596;53.554;9.916;2023-02-19T05:33:02;2.30;99.90
17797;DHT22;55596;53.554;9.916;2023-02-19T05:35:29;2.20;99.90
17797;DHT22;55596;53.554;9.916;2023-02-19T05:37:55;2.20;99.90
17797;DHT22;55596;53.554;9.916;2023-02-19T05:40:22;2.10;99.90
17797;DHT22;55596;53.554;9.916;2023-02-19T05:42:50;2.20;99.90
17797;DHT22;55596;53.554;9.916;2023-02-19T05:45:17;2.10;99.90
17797;DHT22;55596;53.554;9.916;2023-02-19T05:47:44;2.10;99.90
17797;DHT22;55596;53.554;9.916;2023-02-19T05:50:11;2.00;99.90
17797;DHT22;55596;53.554;9.916;2023-02-19T05:52:38;1.90;99.90
17797;DHT22;55596;53.554;9.916;2023-02-19T05:55:05;1.90;99.90
17797;DHT22;55596;53.554;9.916;2023-02-19T05:57:32;1.90;99.90
17797;DHT22;55596;53.554;9.916;2023-02-19T06:00:00;1.90;99.90
17797;DHT22;55596;53.554;9.916;2023-02-19T06:02:27;2.00;99.90
17797;DHT22;55596;53.554;9.916;2023-02-19T06:04:54;1.90;99.90
17797;DHT22;55596;53.554;9.916;2023-02-19T06:07:21;2.00;99.90
17797;DHT22;55596;53.554;9.916;2023-02-19T06:09:49;2.10;99.90
17797;DHT22;55596;53.554;9.916;2023-02-19T06:12:16;2.00;99.90
17797;DHT22;55596;53.554;9.916;2023-02-19T06:14:42;1.90;99.90
17797;DHT22;55596;53.554;9.916;2023-02-19T06:17:11;1.90;99.90
17797;DHT22;55596;53.554;9.916;2023-02-19T06:19:38;2.00;99.90
17797;DHT22;55596;53.554;9.916;2023-02-19T06:22:04;2.00;99.90
17797;DHT22;55596;53.554;9.916;2023-02-19T06:24:32;1.90;99.90
17797;DHT22;55596;53.554;9.916;2023-02-19T06:26:58;1.90;99.90
17797;DHT22;55596;53.554;9.916;2023-02-19T06:29:25;4.50;99.90
17797;DHT22;55596;53.554;9.916;2023-02-19T06:31:52;1.90;99.90
17797;DHT22;55596;53.554;9.916;2023-02-19T06:34:20;1.90;99.90
17797;DHT22;55596;53.554;9.916;2023-02-19T06:36:48;2.00;99.90
17797;DHT22;55596;53.554;9.916;2023-02-19T06:39:15;1.90;99.90
17797;DHT22;55596;53.554;9.916;2023-02-19T06:41:42;2.00;99.90
17797;DHT22;55596;53.554;9.916;2023-02-19T06:44:09;2.00;99.90
17797;DHT22;55596;53.554;9.916;2023-02-19T06:46:36;1.90;99.90
17797;DHT22;55596;53.554;9.916;2023-02-19T06:49:03;1.90;99.90
17797;DHT22;55596;53.554;9.916;2023-02-19T06:51:31;1.90;99.90
17797;DHT22;55596;53.554;9.916;2023-02-19T06:53:59;1.90;99.90
17797;DHT22;55596;53.554;9.916;2023-02-19T06:56:29;1.90;99.90
17797;DHT22;55596;53.554;9.916;2023-02-19T06:58:57;1.90;99.90
17797;DHT22;55596;53.554;9.916;2023-02-19T07:01:25;1.80;99.90
17797;DHT22;55596;53.554;9.916;2023-02-19T07:03:53;1.80;99.90
17797;DHT22;55596;53.554;9.916;2023-02-19T07:06:20;1.90;99.90
17797;DHT22;55596;53.554;9.916;2023-02-19T07:08:49;1.90;99.90
17797;DHT22;55596;53.554;9.916;2023-02-19T07:11:16;2.00;99.90
17797;DHT22;55596;53.554;9.916;2023-02-19T07:13:44;1.90;99.90
17797;DHT22;55596;53.554;9.916;2023-02-19T07:16:11;2.00;99.90
17797;DHT22;55596;53.554;9.916;2023-02-19T07:18:39;2.00;99.90
17797;DHT22;55596;53.554;9.916;2023-02-19T07:21:08;2.10;99.90
17797;DHT22;55596;53.554;9.916;2023-02-19T07:23:35;2.20;99.90
17797;DHT22;55596;53.554;9.916;2023-02-19T07:26:06;2.10;99.90
17797;DHT22;55596;53.554;9.916;2023-02-19T07:28:34;2.30;99.90
17797;DHT22;55596;53.554;9.916;2023-02-19T07:31:01;2.30;99.90
17797;DHT22;55596;53.554;9.916;2023-02-19T07:33:28;2.40;99.90
17797;DHT22;55596;53.554;9.916;2023-02-19T07:35:55;2.50;99.90
17797;DHT22;55596;53.554;9.916;2023-02-19T07:38:24;2.70;99.90
17797;DHT22;55596;53.554;9.916;2023-02-19T07:40:52;2.60;99.90
17797;DHT22;55596;53.554;9.916;2023-02-19T07:43:21;2.70;99.90
17797;DHT22;55596;53.554;9.916;2023-02-19T07:45:48;2.70;99.90
17797;DHT22;55596;53.554;9.916;2023-02-19T07:48:15;2.70;99.90
17797;DHT22;55596;53.554;9.916;2023-02-19T07:50:42;2.60;99.90
17797;DHT22;55596;53.554;9.916;2023-02-19T07:53:16;2.60;99.90
17797;DHT22;55596;53.554;9.916;2023-02-19T07:55:42;2.50;99.90
17797;DHT22;55596;53.554;9.916;2023-02-19T07:58:09;2.50;99.90
17797;DHT22;55596;53.554;9.916;2023-02-19T08:00:37;2.40;99.90
17797;DHT22;55596;53.554;9.916;2023-02-19T08:03:04;2.30;99.90
17797;DHT22;55596;53.554;9.916;2023-02-19T08:05:32;2.30;99.90
17797;DHT22;55596;53.554;9.916;2023-02-19T08:07:59;2.40;99.90
17797;DHT22;55596;53.554;9.916;2023-02-19T08:10:26;2.30;99.90
17797;DHT22;55596;53.554;9.916;2023-02-19T08:13:15;2.30;99.90
17797;DHT22;55596;53.554;9.916;2023-02-19T08:15:46;2.50;99.90
17797;DHT22;55596;53.554;9.916;2023-02-19T08:18:14;2.50;99.90
17797;DHT22;55596;53.554;9.916;2023-02-19T08:20:42;2.60;99.90
17797;DHT22;55596;53.554;9.916;2023-02-19T08:23:09;2.60;99.90
17797;DHT22;55596;53.554;9.916;2023-02-19T08:25:37;2.60;99.90
17797;DHT22;55596;53.554;9.916;2023-02-19T08:28:04;2.60;99.90
17797;DHT22;55596;53.554;9.916;2023-02-19T08:30:32;2.60;99.90
17797;DHT22;55596;53.554;9.916;2023-02-19T08:33:00;2.80;99.90
17797;DHT22;55596;53.554;9.916;2023-02-19T08:35:27;2.80;99.90
17797;DHT22;55596;53.554;9.916;2023-02-19T08:37:54;2.80;99.90
17797;DHT22;55596;53.554;9.916;2023-02-19T08:40:22;2.90;99.90
17797;DHT22;55596;53.554;9.916;2023-02-19T08:42:49;2.90;99.90
17797;DHT22;55596;53.554;9.916;2023-02-19T08:45:16;3.10;99.90
17797;DHT22;55596;53.554;9.916;2023-02-19T08:47:43;3.20;99.90
17797;DHT22;55596;53.554;9.916;2023-02-19T08:50:12;3.10;99.90
17797;DHT22;55596;53.554;9.916;2023-02-19T08:52:39;3.10;99.90
17797;DHT22;55596;53.554;9.916;2023-02-19T08:55:06;3.10;99.90
17797;DHT22;55596;53.554;9.916;2023-02-19T08:57:34;3.30;99.90
17797;DHT22;55596;53.554;9.916;2023-02-19T09:00:02;3.30;99.90
17797;DHT22;55596;53.554;9.916;2023-02-19T09:02:29;3.40;99.90
17797;DHT22;55596;53.554;9.916;2023-02-19T09:04:56;3.50;99.90
17797;DHT22;55596;53.554;9.916;2023-02-19T09:07:24;3.50;99.90
17797;DHT22;55596;53.554;9.916;2023-02-19T09:09:51;3.50;99.90
17797;DHT22;55596;53.554;9.916;2023-02-19T09:12:18;3.50;99.90
17797;DHT22;55596;53.554;9.916;2023-02-19T09:14:45;3.60;99.90
17797;DHT22;55596;53.554;9.916;2023-02-19T09:17:12;3.70;99.90
17797;DHT22;55596;53.554;9.916;2023-02-19T09:19:39;3.80;99.90
17797;DHT22;55596;53.554;9.916;2023-02-19T09:22:06;3.90;99.90
17797;DHT22;55596;53.554;9.916;2023-02-19T09:24:34;3.80;99.90
17797;DHT22;55596;53.554;9.916;2023-02-19T09:27:01;4.00;99.90
17797;DHT22;55596;53.554;9.916;2023-02-19T09:29:28;4.10;99.90
17797;DHT22;55596;53.554;9.916;2023-02-19T09:31:55;4.10;99.90
17797;DHT22;55596;53.554;9.916;2023-02-19T09:34:23;4.20;99.90
17797;DHT22;55596;53.554;9.916;2023-02-19T09:36:50;4.10;99.90
17797;DHT22;55596;53.554;9.916;2023-02-19T09:39:18;4.20;99.90
17797;DHT22;55596;53.554;9.916;2023-02-19T09:41:48;4.20;99.90
17797;DHT22;55596;53.554;9.916;2023-02-19T09:44:22;4.40;99.90
17797;DHT22;55596;53.554;9.916;2023-02-19T09:46:51;4.50;99.90
17797;DHT22;55596;53.554;9.916;2023-02-19T09:49:20;4.40;99.90
17797;DHT22;55596;53.554;9.916;2023-02-19T09:51:51;4.70;99.90
17797;DHT22;55596;53.554;9.916;2023-02-19T09:54:22;4.50;99.90
17797;DHT22;55596;53.554;9.916;2023-02-19T09:56:53;4.70;99.90
17797;DHT22;55596;53.554;9.916;2023-02-19T09:59:22;4.60;99.90
17797;DHT22;55596;53.554;9.916;2023-02-19T10:02:03;4.90;99.90
17797;DHT22;55596;53.554;9.916;2023-02-19T10:04:35;4.90;99.90
17797;DHT22;55596;53.554;9.916;2023-02-19T10:07:03;4.90;99.90
17797;DHT22;55596;53.554;9.916;2023-02-19T10:09:33;4.90;99.90
17797;DHT22;55596;53.554;9.916;2023-02-19T10:12:04;4.90;99.90
17797;DHT22;55596;53.554;9.916;2023-02-19T10:14:40;4.90;99.90
17797;DHT22;55596;53.554;9.916;2023-02-19T10:17:15;4.90;99.90
17797;DHT22;55596;53.554;9.916;2023-02-19T10:19:44;5.00;99.90
17797;DHT22;55596;53.554;9.916;2023-02-19T10:22:11;5.10;99.90
17797;DHT22;55596;53.554;9.916;2023-02-19T10:24:40;5.10;99.90
17797;DHT22;55596;53.554;9.916;2023-02-19T10:27:11;5.00;99.90
17797;DHT22;55596;53.554;9.916;2023-02-19T10:29:38;5.10;99.90
17797;DHT22;55596;53.554;9.916;2023-02-19T10:32:13;5.20;99.90
17797;DHT22;55596;53.554;9.916;2023-02-19T10:34:42;5.30;99.90
17797;DHT22;55596;53.554;9.916;2023-02-19T10:37:12;5.50;99.90
17797;DHT22;55596;53.554;9.916;2023-02-19T10:39:41;5.60;99.90
17797;DHT22;55596;53.554;9.916;2023-02-19T10:42:19;5.90;99.90
17797;DHT22;55596;53.554;9.916;2023-02-19T10:44:50;6.00;99.90
17797;DHT22;55596;53.554;9.916;2023-02-19T10:47:20;7.90;99.90
17797;DHT22;55596;53.554;9.916;2023-02-19T10:49:48;6.20;99.90
17797;DHT22;55596;53.554;9.916;2023-02-19T10:52:19;6.40;99.90
17797;DHT22;55596;53.554;9.916;2023-02-19T10:54:54;6.60;99.90
17797;DHT22;55596;53.554;9.916;2023-02-19T10:57:26;6.70;99.90
17797;DHT22;55596;53.554;9.916;2023-02-19T10:59:58;6.70;99.90
17797;DHT22;55596;53.554;9.916;2023-02-19T11:02:27;6.70;99.90
17797;DHT22;55596;53.554;9.916;2023-02-19T11:05:15;6.70;99.90
17797;DHT22;55596;53.554;9.916;2023-02-19T11:07:44;6.90;99.90
17797;DHT22;55596;53.554;9.916;2023-02-19T11:10:25;6.80;99.90
17797;DHT22;55596;53.554;9.916;2023-02-19T11:12:56;7.00;99.90
17797;DHT22;55596;53.554;9.916;2023-02-19T11:15:26;7.20;99.90
17797;DHT22;55596;53.554;9.916;2023-02-19T11:17:56;7.20;99.90
17797;DHT22;55596;53.554;9.916;2023-02-19T11:20:25;7.60;99.90
17797;DHT22;55596;53.554;9.916;2023-02-19T11:22:57;7.90;99.90
17797;DHT22;55596;53.554;9.916;2023-02-19T11:25:26;8.10;99.90
17797;DHT22;55596;53.554;9.916;2023-02-19T11:27:57;10.80;99.90
17797;DHT22;55596;53.554;9.916;2023-02-19T11:30:36;8.30;99.90
17797;DHT22;55596;53.554;9.916;2023-02-19T11:33:20;8.60;99.90
17797;DHT22;55596;53.554;9.916;2023-02-19T11:35:49;9.30;99.90
17797;DHT22;55596;53.554;9.916;2023-02-19T11:38:18;9.80;99.90
17797;DHT22;55596;53.554;9.916;2023-02-19T11:40:52;10.00;99.90
17797;DHT22;55596;53.554;9.916;2023-02-19T11:43:39;10.40;99.90
17797;DHT22;55596;53.554;9.916;2023-02-19T11:46:16;10.20;99.90
17797;DHT22;55596;53.554;9.916;2023-02-19T11:48:51;10.30;99.90
17797;DHT22;55596;53.554;9.916;2023-02-19T11:51:42;10.40;99.90
17797;DHT22;55596;53.554;9.916;2023-02-19T11:54:25;10.10;99.90
17797;DHT22;55596;53.554;9.916;2023-02-19T11:57:00;10.30;99.90
17797;DHT22;55596;53.554;9.916;2023-02-19T11:59:34;11.00;99.90
17797;DHT22;55596;53.554;9.916;2023-02-19T12:05:17;11.00;99.90
17797;DHT22;55596;53.554;9.916;2023-02-19T12:10:51;10.50;99.90
17797;DHT22;55596;53.554;9.916;2023-02-19T12:13:28;10.20;99.90
17797;DHT22;55596;53.554;9.916;2023-02-19T12:16:16;10.20;99.90
17797;DHT22;55596;53.554;9.916;2023-02-19T12:19:06;10.20;99.90
17797;DHT22;55596;53.554;9.916;2023-02-19T12:21:46;9.20;99.90
17797;DHT22;55596;53.554;9.916;2023-02-19T12:24:34;9.40;99.90
17797;DHT22;55596;53.554;9.916;2023-02-19T12:27:19;9.40;99.90
17797;DHT22;55596;53.554;9.916;2023-02-19T12:32:43;10.80;99.90
17797;DHT22;55596;53.554;9.916;2023-02-19T12:35:24;11.10;99.90
17797;DHT22;55596;53.554;9.916;2023-02-19T12:37:58;11.20;99.90
17797;DHT22;55596;53.554;9.916;2023-02-19T12:40:37;11.80;99.90
17797;DHT22;55596;53.554;9.916;2023-02-19T12:43:12;12.20;99.90
17797;DHT22;55596;53.554;9.916;2023-02-19T12:45:44;12.40;99.90
17797;DHT22;55596;53.554;9.916;2023-02-19T12:48:19;12.60;99.90
17797;DHT22;55596;53.554;9.916;2023-02-19T12:50:54;12.10;99.90
17797;DHT22;55596;53.554;9.916;2023-02-19T12:53:38;12.50;99.90
17797;DHT22;55596;53.554;9.916;2023-02-19T12:56:12;12.70;99.90
17797;DHT22;55596;53.554;9.916;2023-02-19T12:58:44;13.60;99.90
17797;DHT22;55596;53.554;9.916;2023-02-19T13:01:17;12.30;99.30
17797;DHT22;55596;53.554;9.916;2023-02-19T13:03:49;12.00;99.90
17797;DHT22;55596;53.554;9.916;2023-02-19T13:06:26;12.50;99.90
17797;DHT22;55596;53.554;9.916;2023-02-19T13:08:59;12.80;99.90
17797;DHT22;55596;53.554;9.916;2023-02-19T13:11:32;13.30;98.90
17797;DHT22;55596;53.554;9.916;2023-02-19T13:14:04;14.00;99.90
17797;DHT22;55596;53.554;9.916;2023-02-19T13:16:36;13.50;93.20
17797;DHT22;55596;53.554;9.916;2023-02-19T13:19:05;13.70;98.50
17797;DHT22;55596;53.554;9.916;2023-02-19T13:21:35;13.20;92.90
17797;DHT22;55596;53.554;9.916;2023-02-19T13:24:24;13.60;98.50
17797;DHT22;55596;53.554;9.916;2023-02-19T13:27:05;13.20;93.00
17797;DHT22;55596;53.554;9.916;2023-02-19T13:29:54;12.70;97.30
17797;DHT22;55596;53.554;9.916;2023-02-19T13:32:47;12.50;93.10
17797;DHT22;55596;53.554;9.916;2023-02-19T13:35:34;12.50;97.30
17797;DHT22;55596;53.554;9.916;2023-02-19T13:38:09;12.30;95.10
17797;DHT22;55596;53.554;9.916;2023-02-19T13:40:39;12.40;97.00
17797;DHT22;55596;53.554;9.916;2023-02-19T13:43:21;12.40;89.50
17797;DHT22;55596;53.554;9.916;2023-02-19T13:45:54;12.20;90.90
17797;DHT22;55596;53.554;9.916;2023-02-19T13:48:26;12.00;97.40
17797;DHT22;55596;53.554;9.916;2023-02-19T13:53:59;12.10;94.40
17797;DHT22;55596;53.554;9.916;2023-02-19T13:56:37;11.60;96.50
17797;DHT22;55596;53.554;9.916;2023-02-19T13:59:23;10.90;93.10
17797;DHT22;55596;53.554;9.916;2023-02-19T14:04:56;10.50;98.90
17797;DHT22;55596;53.554;9.916;2023-02-19T14:10:58;11.40;98.60
17797;DHT22;55596;53.554;9.916;2023-02-19T14:13:57;11.40;99.90
17797;DHT22;55596;53.554;9.916;2023-02-19T14:19:21;11.90;93.60
17797;DHT22;55596;53.554;9.916;2023-02-19T14:21:59;12.30;95.70
17797;DHT22;55596;53.554;9.916;2023-02-19T14:24:27;12.40;99.20
17797;DHT22;55596;53.554;9.916;2023-02-19T14:26:56;12.50;91.70
17797;DHT22;55596;53.554;9.916;2023-02-19T14:29:27;12.60;92.50
17797;DHT22;55596;53.554;9.916;2023-02-19T14:31:54;13.00;94.40
17797;DHT22;55596;53.554;9.916;2023-02-19T14:34:23;13.30;96.90
17797;DHT22;55596;53.554;9.916;2023-02-19T14:36:52;13.60;93.80
17797;DHT22;55596;53.554;9.916;2023-02-19T14:39:24;13.40;92.00
17797;DHT22;55596;53.554;9.916;2023-02-19T14:41:57;13.50;94.80
17797;DHT22;55596;53.554;9.916;2023-02-19T14:44:28;14.90;98.60
17797;DHT22;55596;53.554;9.916;2023-02-19T14:46:58;13.40;94.20
17797;DHT22;55596;53.554;9.916;2023-02-19T14:49:37;13.20;94.00
17797;DHT22;55596;53.554;9.916;2023-02-19T14:52:12;12.20;98.50
17797;DHT22;55596;53.554;9.916;2023-02-19T14:54:43;11.70;95.40
17797;DHT22;55596;53.554;9.916;2023-02-19T14:57:18;11.60;99.70
17797;DHT22;55596;53.554;9.916;2023-02-19T14:59:54;11.10;94.90
17797;DHT22;55596;53.554;9.916;2023-02-19T15:02:23;10.60;99.40
17797;DHT22;55596;53.554;9.916;2023-02-19T15:04:51;10.10;99.90
17797;DHT22;55596;53.554;9.916;2023-02-19T15:07:20;9.50;95.80
17797;DHT22;55596;53.554;9.916;2023-02-19T15:09:50;9.40;99.90
17797;DHT22;55596;53.554;9.916;2023-02-19T15:12:21;9.20;99.90
17797;DHT22;55596;53.554;9.916;2023-02-19T15:14:53;9.10;99.90
17797;DHT22;55596;53.554;9.916;2023-02-19T15:17:24;9.10;99.50
17797;DHT22;55596;53.554;9.916;2023-02-19T15:19:51;9.30;99.90
17797;DHT22;55596;53.554;9.916;2023-02-19T15:22:21;9.10;99.90
17797;DHT22;55596;53.554;9.916;2023-02-19T15:24:50;9.10;99.90
17797;DHT22;55596;53.554;9.916;2023-02-19T15:27:20;8.70;99.90
17797;DHT22;55596;53.554;9.916;2023-02-19T15:29:49;8.60;99.90
17797;DHT22;55596;53.554;9.916;2023-02-19T15:32:18;8.60;99.90
17797;DHT22;55596;53.554;9.916;2023-02-19T15:34:52;8.60;99.90
17797;DHT22;55596;53.554;9.916;2023-02-19T15:37:21;8.40;99.90
17797;DHT22;55596;53.554;9.916;2023-02-19T15:39:50;8.20;99.90
17797;DHT22;55596;53.554;9.916;2023-02-19T15:42:21;7.90;99.90
17797;DHT22;55596;53.554;9.916;2023-02-19T15:44:53;7.70;99.90
17797;DHT22;55596;53.554;9.916;2023-02-19T15:47:26;7.80;99.90
17797;DHT22;55596;53.554;9.916;2023-02-19T15:50:01;7.50;99.90
17797;DHT22;55596;53.554;9.916;2023-02-19T15:52:34;7.60;99.90
17797;DHT22;55596;53.554;9.916;2023-02-19T15:55:07;7.60;99.90
17797;DHT22;55596;53.554;9.916;2023-02-19T15:57:40;7.30;99.90
17797;DHT22;55596;53.554;9.916;2023-02-19T16:00:13;7.20;99.90
17797;DHT22;55596;53.554;9.916;2023-02-19T16:02:42;7.10;99.90
17797;DHT22;55596;53.554;9.916;2023-02-19T16:05:12;6.80;99.90
17797;DHT22;55596;53.554;9.916;2023-02-19T16:07:40;6.80;99.90
17797;DHT22;55596;53.554;9.916;2023-02-19T16:10:20;6.70;99.90
17797;DHT22;55596;53.554;9.916;2023-02-19T16:12:56;6.50;99.90
17797;DHT22;55596;53.554;9.916;2023-02-19T16:15:23;6.40;99.90
17797;DHT22;55596;53.554;9.916;2023-02-19T16:17:50;6.10;99.90
17797;DHT22;55596;53.554;9.916;2023-02-19T16:20:20;6.40;99.90
17797;DHT22;55596;53.554;9.916;2023-02-19T16:22:48;7.70;99.90
17797;DHT22;55596;53.554;9.916;2023-02-19T16:25:32;6.00;99.90
17797;DHT22;55596;53.554;9.916;2023-02-19T16:28:11;6.20;99.90
17797;DHT22;55596;53.554;9.916;2023-02-19T16:30:38;5.70;99.90